Time;durP1;ratioP1;P1;durP2;ratioP2;P2;SDS_P1;SDS_P2;PMS_P1;PMS_P2;Temp;Humidity;BMP_temperature;BMP_pressure;BME280_temperature;BME280_humidity;BME280_pressure;Samples;Min_cycle;Max_cycle;Signal;HPM_P1;HPM_P2
2021/12/13 00:01:02;;;;;;;3.57;2.43;;;10.00;89.60;;;8.73;60.01;99759.94;4861212;28;114721;-77
2021/12/13 00:03:51;;;;;;;2.90;2.33;;;8.20;89.30;;;8.71;60.35;99764.94;4867631;28;113691;-77
2021/12/13 00:06:27;;;;;;;3.30;2.63;;;8.20;89.40;;;8.70;60.60;99761.31;4848152;28;124311;-78
2021/12/13 00:08:58;;;;;;;3.03;2.43;;;8.60;90.00;;;8.71;60.70;99762.19;4867642;28;123790;-78
2021/12/13 00:11:34;;;;;;;3.60;2.20;;;8.30;89.90;;;8.73;60.85;99771.81;4871464;28;113641;-78
2021/12/13 00:14:11;;;;;;;3.23;2.10;;;8.20;90.00;;;8.70;60.88;99755.81;4855064;28;116166;-77
2021/12/13 00:16:46;;;;;;;3.87;2.53;;;8.20;90.00;;;8.69;61.05;99765.19;4872317;28;123794;-79
2021/12/13 00:19:22;;;;;;;3.37;2.23;;;8.20;90.10;;;8.65;61.16;99764.13;4848671;29;123858;-78
2021/12/13 00:22:02;;;;;;;4.17;2.60;;;8.20;90.10;;;8.66;61.03;99762.19;4854255;29;114001;-78
2021/12/13 00:24:34;;;;;;;4.37;2.40;;;8.20;90.20;;;8.60;61.35;99756.66;4860280;28;113983;-77
2021/12/13 00:27:11;;;;;;;3.40;2.20;;;9.40;90.80;;;8.59;61.24;99754.19;4870055;28;123253;-78
2021/12/13 00:30:26;;;;;;;3.30;2.37;;;8.10;90.30;;;8.58;61.35;99764.38;4872565;28;124063;-77
2021/12/13 00:33:30;;;;;;;3.43;2.20;;;8.10;90.40;;;8.57;61.89;99761.88;4864009;28;115088;-77
2021/12/13 00:36:08;;;;;;;2.30;2.10;;;8.10;90.40;;;8.55;61.78;99766.88;4862475;28;114855;-80
2021/12/13 00:38:49;;;;;;;3.63;2.43;;;8.70;90.70;;;8.54;61.89;99757.78;4873243;28;124078;-78
2021/12/13 00:41:22;;;;;;;8.13;3.23;;;8.10;90.50;;;8.54;61.98;99754.16;4853200;28;123777;-77
2021/12/13 00:44:12;;;;;;;4.10;2.60;;;9.20;91.00;;;8.57;61.89;99761.88;4864107;28;114348;-80
2021/12/13 00:46:43;;;;;;;6.20;2.57;;;8.00;90.60;;;8.58;61.98;99769.88;4870080;28;113577;-77
2021/12/13 00:49:13;;;;;;;3.20;2.40;;;8.10;90.70;;;8.62;61.94;99770.16;4852578;28;124280;-78
2021/12/13 00:51:48;;;;;;;5.80;2.63;;;8.10;90.80;;;8.63;62.22;99769.06;4853107;29;124161;-77
2021/12/13 00:54:42;;;;;;;5.43;2.40;;;8.10;90.80;;;8.65;62.18;99769.63;4855867;28;114715;-77
2021/12/13 00:57:29;;;;;;;4.43;2.73;;;8.10;90.90;;;8.66;62.22;99771.25;4840940;28;113696;-78
2021/12/13 01:00:10;;;;;;;2.70;2.30;;;8.10;90.90;;;8.67;62.25;99775.66;4861829;28;123954;-77
2021/12/13 01:02:48;;;;;;;4.40;2.40;;;8.10;91.00;;;8.66;62.30;99773.19;4838747;29;123070;-77
2021/12/13 01:05:45;;;;;;;4.00;2.93;;;8.90;91.40;;;8.66;62.40;99775.94;4863548;28;114968;-76
2021/12/13 01:08:32;;;;;;;4.03;3.10;;;8.10;91.10;;;8.64;62.52;99767.94;4871650;28;114101;-76
2021/12/13 01:11:46;;;;;;;4.87;3.30;;;8.10;91.10;;;8.66;62.65;99775.94;4873961;28;125240;-76
2021/12/13 01:14:57;;;;;;;3.60;2.50;;;8.10;91.50;;;8.66;62.58;99771.25;4841090;28;123113;-77
2021/12/13 01:17:56;;;;;;;6.53;3.47;;;8.10;91.30;;;8.66;62.77;99771.25;4857483;29;115063;-77
2021/12/13 01:20:58;;;;;;;2.73;2.50;;;6.80;90.80;;;8.66;62.83;99779.53;4865099;28;114464;-76
2021/12/13 01:23:47;;;;;;;3.40;2.30;;;8.10;91.40;;;8.62;62.99;99770.16;4861868;28;123246;-79
2021/12/13 01:29:02;;;;;;;6.00;3.50;;;8.10;91.50;;;8.63;63.50;99778.16;4868016;28;115508;-77
2021/12/13 01:31:41;;;;;;;7.43;3.47;;;8.10;91.50;;;8.64;63.28;99778.97;4854419;29;115171;-76
2021/12/13 01:34:10;;;;;;;5.43;3.10;;;8.40;91.70;;;8.61;63.77;99782.28;4865602;28;124139;-77
2021/12/13 01:36:47;;;;;;;6.50;3.60;;;8.10;91.60;;;8.60;63.64;99783.38;4873269;28;123840;-78
2021/12/13 01:39:20;;;;;;;7.10;2.83;;;8.10;91.70;;;8.60;63.82;99777.88;4862479;28;115218;-76
2021/12/13 01:41:55;;;;;;;4.70;3.13;;;9.00;92.10;;;8.59;64.19;99782.53;4854206;29;113674;-78
2021/12/13 01:44:28;;;;;;;5.33;3.20;;;8.10;91.80;;;8.58;64.16;99780.06;4864272;28;125604;-77
2021/12/13 01:47:10;;;;;;;9.83;3.27;;;8.10;91.90;;;8.59;64.08;99778.97;4854338;29;123877;-78
2021/12/13 01:49:42;;;;;;;5.57;2.87;;;8.30;92.10;;;8.60;63.98;99778.69;4851417;28;114158;-79
2021/12/13 01:52:17;;;;;;;4.40;3.10;;;8.10;92.10;;;8.61;64.29;99779.53;4872649;28;113827;-77
2021/12/13 01:54:44;;;;;;;3.90;2.70;;;8.10;92.10;;;8.59;64.41;99779.78;4871154;28;124399;-77
2021/12/13 01:59:55;;;;;;;4.00;3.07;;;8.80;92.60;;;8.60;64.16;99783.38;4861575;28;114595;-80
2021/12/13 02:02:47;;;;;;;6.70;3.60;;;8.10;92.30;;;8.58;64.55;99785.59;4866237;28;114856;-78
2021/12/13 02:05:22;;;;;;;5.07;3.60;;;8.10;92.40;;;8.55;64.86;99781.44;4859620;29;124592;-77
2021/12/13 02:08:11;;;;;;;5.80;3.33;;;8.00;92.40;;;8.56;64.86;99782.28;4854631;28;123577;-82
2021/12/13 02:10:49;;;;;;;6.50;3.20;;;8.00;92.50;;;8.54;64.94;99778.97;4876313;28;114186;-78
2021/12/13 02:13:37;;;;;;;3.40;3.10;;;8.00;92.50;;;8.55;64.88;99784.22;4866166;28;113751;-76
2021/12/13 02:18:57;;;;;;;11.60;3.80;;;8.00;92.60;;;8.57;64.74;99775.66;4857057;28;125197;-78
2021/12/13 02:21:33;;;;;;;5.93;3.90;;;8.00;92.60;;;8.60;65.06;99780.63;4852880;29;115090;-78
2021/12/13 02:24:11;;;;;;;6.13;3.63;;;8.00;92.70;;;8.59;64.79;99773.47;4861541;28;115004;-77
2021/12/13 02:26:47;;;;;;;8.00;3.80;;;8.80;93.00;;;8.57;65.12;99771.00;4873535;28;123302;-80
2021/12/13 02:29:30;;;;;;;7.93;3.80;;;8.10;92.70;;;8.57;65.19;99773.75;4861472;28;124140;-77
2021/12/13 02:32:00;;;;;;;4.83;3.33;;;8.00;92.70;;;8.57;65.09;99784.75;4856965;28;113731;-80
2021/12/13 02:34:30;;;;;;;5.43;3.67;;;8.00;92.70;;;8.58;65.51;99788.34;4864919;28;115077;-78
2021/12/13 02:36:57;;;;;;;4.10;3.43;;;8.90;93.20;;;8.57;65.08;99776.50;4839844;28;124632;-78
2021/12/13 02:39:30;;;;;;;6.90;3.53;;;8.10;92.90;;;8.57;65.11;99784.75;4870596;28;124504;-77
2021/12/13 02:42:00;;;;;;;5.70;3.20;;;9.20;93.30;;;8.56;65.33;99782.28;4844522;28;114278;-78
2021/12/13 02:44:38;;;;;;;6.17;4.03;;;8.40;93.00;;;8.57;65.52;99784.75;4872053;28;113849;-78
2021/12/13 02:47:20;;;;;;;6.10;3.37;;;8.00;92.90;;;8.59;65.55;99788.03;4856211;28;123283;-78
2021/12/13 02:49:47;;;;;;;7.07;2.97;;;8.00;93.00;;;8.59;65.36;99792.75;4871091;28;124774;-77
2021/12/13 02:52:17;;;;;;;6.50;3.20;;;8.00;93.00;;;8.58;65.58;99785.59;4873763;28;114704;-77
2021/12/13 02:54:50;;;;;;;7.13;4.53;;;8.10;93.10;;;8.56;66.05;99785.84;4888459;28;113685;-78
2021/12/13 02:57:32;;;;;;;3.03;2.63;;;8.00;93.10;;;8.57;65.72;99775.66;4884057;28;124285;-77
2021/12/13 03:00:18;;;;;;;3.40;2.93;;;8.00;93.10;;;8.54;65.55;99779.81;4887816;28;124057;-78
2021/12/13 03:02:51;;;;;;;5.37;2.77;;;8.00;93.10;;;8.52;65.62;99781.19;4891848;28;112794;-77
2021/12/13 03:05:32;;;;;;;3.30;2.67;;;8.00;93.20;;;8.52;65.49;99781.19;4874002;28;114320;-77
2021/12/13 03:08:11;;;;;;;5.53;2.93;;;7.30;92.90;;;8.51;65.74;99779.50;4872126;28;124328;-77
2021/12/13 03:10:47;;;;;;;6.63;3.40;;;8.00;93.20;;;8.49;65.86;99778.97;4891080;28;124240;-77
2021/12/13 03:13:15;;;;;;;5.47;3.07;;;8.00;93.30;;;8.49;66.11;99778.97;4889741;28;115218;-77
2021/12/13 03:15:49;;;;;;;4.87;3.53;;;8.70;93.60;;;8.51;66.22;99779.50;4871833;28;115360;-78
2021/12/13 03:18:29;;;;;;;4.13;3.10;;;9.20;93.80;;;8.52;66.03;99775.69;4855805;28;123824;-78
2021/12/13 03:21:07;;;;;;;3.40;3.00;;;9.10;93.80;;;8.52;65.91;99778.44;4890527;28;123852;-77
2021/12/13 03:24:37;;;;;;;3.53;3.03;;;8.00;93.30;;;8.52;65.93;99781.19;4886806;28;114146;-78
2021/12/13 03:27:04;;;;;;;6.80;3.77;;;8.00;93.40;;;8.49;66.00;99777.06;4872304;28;113762;-78
2021/12/13 03:30:08;;;;;;;6.37;3.43;;;8.00;93.40;;;8.51;65.84;99777.59;4890670;28;123953;-78
2021/12/13 03:32:53;;;;;;;6.87;3.30;;;7.90;93.30;;;8.54;65.96;99778.97;4884888;28;123569;-78
2021/12/13 03:35:36;;;;;;;4.43;3.00;;;8.10;93.50;;;8.58;65.62;99780.06;4871344;28;114485;-78
2021/12/13 03:38:17;;;;;;;9.10;3.60;;;8.00;93.40;;;8.60;65.84;99780.63;4882628;28;114359;-78
2021/12/13 03:40:48;;;;;;;7.83;3.97;;;8.10;93.50;;;8.61;65.91;99782.28;4890302;28;124052;-78
2021/12/13 03:43:41;;;;;;;4.53;3.20;;;8.90;93.80;;;8.63;65.84;99786.41;4884475;28;123601;-78
2021/12/13 03:46:12;;;;;;;18.93;4.20;;;8.10;93.50;;;8.63;65.50;99780.09;4891248;28;113275;-78
2021/12/13 03:48:41;;;;;;;8.53;2.90;;;8.10;93.40;;;8.62;65.93;99779.25;4890787;28;114387;-78
2021/12/13 03:51:14;;;;;;;7.10;3.10;;;8.10;93.40;;;8.64;65.49;99778.97;4893219;28;124319;-80
2021/12/13 03:53:47;;;;;;;6.07;3.10;;;9.00;93.70;;;8.65;65.38;99783.41;4873658;28;124224;-78
2021/12/13 03:56:21;;;;;;;4.30;3.23;;;8.10;93.30;;;8.66;65.60;99776.78;4838706;29;114777;-78
2021/12/13 03:58:58;;;;;;;5.90;3.73;;;8.30;93.40;;;8.67;65.25;99778.41;4861585;28;114263;-78
2021/12/13 04:01:36;;;;;;;5.27;3.60;;;8.90;93.60;;;8.68;65.50;99779.22;4857379;28;123819;-78
2021/12/13 04:04:09;;;;;;;5.30;3.23;;;8.10;93.20;;;8.69;65.53;99780.91;4861410;28;123853;-78
2021/12/13 04:06:53;;;;;;;10.47;3.30;;;9.70;93.90;;;8.69;65.33;99776.22;4857548;29;115191;-77
2021/12/13 04:09:22;;;;;;;6.70;3.70;;;7.80;93.00;;;8.68;65.26;99776.47;4855499;28;115003;-80
2021/12/13 04:11:56;;;;;;;4.77;3.13;;;8.10;93.10;;;8.68;65.14;99784.75;4873958;28;124408;-78
2021/12/13 04:14:30;;;;;;;6.00;4.03;;;8.30;93.20;;;8.67;65.01;99783.94;4855887;28;123792;-76
2021/12/13 04:17:42;;;;;;;5.33;3.23;;;8.10;93.00;;;8.68;64.97;99787.50;4855335;29;114290;-80
2021/12/13 04:20:35;;;;;;;7.97;4.23;;;8.50;93.20;;;8.66;64.60;99786.97;4853634;28;113122;-77
2021/12/13 04:23:15;;;;;;;5.67;3.93;;;8.10;93.00;;;8.66;64.78;99793.31;4869262;28;124406;-76
2021/12/13 04:25:45;;;;;;;5.23;3.10;;;8.10;92.90;;;8.65;64.63;99788.91;4839408;29;123737;-77
2021/12/13 04:28:33;;;;;;;5.97;3.40;;;8.10;92.90;;;8.70;64.57;99802.66;4865641;28;114828;-78
2021/12/13 04:31:10;;;;;;;4.47;3.60;;;8.10;92.80;;;8.73;64.89;99795.75;4856197;29;113286;-78
2021/12/13 04:33:48;;;;;;;6.40;3.90;;;8.10;92.80;;;8.76;64.26;99798.00;4866732;28;124192;-79
2021/12/13 04:36:24;;;;;;;6.47;4.00;;;9.30;93.30;;;8.77;64.52;99794.94;4873923;28;123807;-78
2021/12/13 04:39:32;;;;;;;5.60;3.10;;;8.60;92.90;;;8.80;64.47;99804.59;4866680;28;114180;-77
2021/12/13 04:42:10;;;;;;;7.70;4.27;;;8.20;92.70;;;8.81;64.18;99801.56;4873873;28;113975;-77
2021/12/13 04:44:50;;;;;;;5.20;3.37;;;8.20;92.70;;;8.81;64.22;99801.56;4873821;28;123090;-77
2021/12/13 04:47:29;;;;;;;5.47;3.80;;;8.20;92.70;;;8.84;64.30;99811.22;4873596;28;124077;-76
2021/12/13 04:50:09;;;;;;;5.13;3.10;;;8.20;92.60;;;8.83;64.18;99815.88;4855642;29;112855;-77
2021/12/13 04:52:38;;;;;;;3.67;2.93;;;8.30;92.60;;;8.84;64.00;99798.25;4858331;28;114185;-77
2021/12/13 04:55:16;;;;;;;4.30;3.33;;;8.30;92.70;;;8.90;64.14;99820.31;4873474;28;124399;-78
2021/12/13 04:57:49;;;;;;;4.47;3.80;;;8.30;92.60;;;8.89;63.82;99802.91;4876531;28;96735;-77
2021/12/13 05:00:20;;;;;;;6.03;4.53;;;9.50;93.10;;;8.89;64.36;99807.63;4871983;28;115405;-77
2021/12/13 05:02:56;;;;;;;7.97;4.73;;;8.60;93.00;;;8.84;64.39;99803.78;4871981;28;114832;-77
2021/12/13 05:05:23;;;;;;;5.23;4.33;;;8.20;92.80;;;8.83;64.50;99806.78;4868811;28;124376;-77
2021/12/13 05:07:51;;;;;;;7.50;4.60;;;8.30;92.80;;;8.84;64.66;99812.03;4871056;28;123429;-77
2021/12/13 05:10:19;;;;;;;9.73;4.53;;;8.30;92.90;;;8.86;64.62;99809.00;4854833;29;114320;-77
2021/12/13 05:13:04;;;;;;;5.37;4.23;;;8.70;93.10;;;8.90;64.50;99801.03;4855881;28;113864;-77
2021/12/13 05:15:34;;;;;;;6.97;4.70;;;7.90;92.70;;;8.90;64.68;99815.63;4873697;28;123819;-77
2021/12/13 05:18:09;;;;;;;9.90;4.90;;;8.30;93.00;;;8.93;64.62;99822.50;4853384;29;125763;-78
2021/12/13 05:20:40;;;;;;;21.13;6.43;;;8.30;93.00;;;8.95;64.69;99818.38;4855053;29;114554;-78
2021/12/13 05:23:20;;;;;;;5.90;4.20;;;8.40;93.00;;;8.97;64.81;99818.06;4854639;29;113290;-78
2021/12/13 05:26:01;;;;;;;7.30;3.70;;;9.50;93.50;;;8.96;64.89;99819.19;4839339;28;124058;-77
2021/12/13 05:28:50;;;;;;;6.03;4.30;;;8.30;93.00;;;8.95;64.89;99828.56;4874594;28;123995;-77
2021/12/13 05:31:23;;;;;;;6.60;4.10;;;8.40;93.10;;;8.95;65.18;99825.81;4870665;28;114357;-78
2021/12/13 05:33:55;;;;;;;5.80;4.53;;;8.40;93.10;;;8.95;65.02;99829.41;4869589;28;114003;-77
2021/12/13 05:36:35;;;;;;;6.23;4.70;;;8.40;93.20;;;8.98;65.08;99828.03;4872814;28;123700;-77
2021/12/13 05:39:16;;;;;;;7.80;4.90;;;8.40;93.20;;;8.98;65.21;99828.84;4873449;28;124111;-78
2021/12/13 05:41:55;;;;;;;5.90;4.30;;;8.40;93.20;;;9.00;65.25;99832.16;4863685;28;114968;-77
2021/12/13 05:44:28;;;;;;;9.07;4.50;;;9.00;93.50;;;8.99;65.08;99840.69;4867238;28;113879;-77
2021/12/13 05:46:56;;;;;;;8.93;4.60;;;8.40;93.30;;;8.99;65.14;99851.72;4871344;28;123969;-80
2021/12/13 05:49:32;;;;;;;7.57;5.53;;;8.40;93.20;;;8.99;65.33;99847.03;4871640;28;123854;-77
2021/12/13 05:52:10;;;;;;;7.80;4.73;;;8.40;93.30;;;8.99;65.23;99846.19;4869792;28;115858;-77
2021/12/13 05:54:45;;;;;;;5.53;4.23;;;8.40;93.30;;;8.99;65.43;99846.19;4868120;28;114826;-77
2021/12/13 05:57:34;;;;;;;7.43;4.27;;;8.40;93.40;;;8.98;65.27;99850.06;4857802;28;124065;-79
2021/12/13 06:00:24;;;;;;;7.97;5.13;;;8.40;93.40;;;8.97;65.27;99849.25;4854069;29;123607;-77
2021/12/13 06:03:09;;;;;;;5.63;4.37;;;8.40;93.40;;;8.96;65.59;99846.75;4871572;28;114097;-77
2021/12/13 06:05:37;;;;;;;9.00;5.97;;;8.40;93.40;;;8.95;65.45;99850.63;4859324;28;114044;-77
2021/12/13 06:08:16;;;;;;;6.80;5.07;;;8.40;93.40;;;8.97;65.50;99852.00;4863654;28;123795;-79
2021/12/13 06:10:46;;;;;;;10.13;5.47;;;8.40;93.50;;;8.97;65.56;99856.66;4876306;28;123749;-80
2021/12/13 06:13:44;;;;;;;8.33;5.10;;;9.50;93.90;;;9.00;65.84;99850.59;4866335;28;114390;-78
2021/12/13 06:16:37;;;;;;;8.17;4.50;;;8.40;93.50;;;9.02;65.39;99853.91;4833503;28;113178;-78
2021/12/13 06:19:15;;;;;;;7.17;4.60;;;8.40;93.50;;;9.01;65.86;99852.28;4874825;28;123128;-79
2021/12/13 06:22:02;;;;;;;5.10;4.60;;;8.50;93.60;;;9.04;65.17;99854.47;4855222;28;124602;-81
2021/12/13 06:24:42;;;;;;;5.87;4.30;;;8.40;93.50;;;9.04;65.94;99851.72;4873452;28;115024;-82
2021/12/13 06:27:31;;;;;;;9.60;5.13;;;8.40;93.50;;;9.05;65.53;99839.56;4873671;28;113714;-81
2021/12/13 06:30:09;;;;;;;8.57;4.90;;;9.20;93.80;;;9.06;65.50;99842.06;4890040;28;124078;-82
2021/12/13 06:32:57;;;;;;;9.37;4.73;;;8.50;93.50;;;9.07;65.68;99848.41;4877887;28;124061;-79
2021/12/13 06:35:46;;;;;;;9.23;4.80;;;8.50;93.50;;;9.09;65.31;99856.41;4877518;28;113826;-77
2021/12/13 06:38:57;;;;;;;7.40;5.00;;;8.50;93.50;;;9.08;65.57;99858.34;4859901;29;113542;-77
2021/12/13 06:41:27;;;;;;;6.70;4.33;;;8.40;93.50;;;9.14;65.88;99859.16;4866931;28;123968;-77
2021/12/13 06:44:05;;;;;;;6.03;4.50;;;8.50;93.70;;;9.22;66.35;99851.16;4871115;28;124042;-78
2021/12/13 06:46:39;;;;;;;8.50;4.90;;;8.60;93.90;;;9.31;66.07;99858.88;4875541;28;115452;-83
2021/12/13 06:49:29;;;;;;;6.10;4.70;;;8.60;93.90;;;9.33;65.61;99856.66;4877714;28;115013;-78
2021/12/13 06:52:13;;;;;;;7.93;5.87;;;8.70;93.90;;;9.34;65.56;99856.38;4860313;28;123388;-79
2021/12/13 06:54:43;;;;;;;7.87;4.63;;;8.50;93.80;;;9.33;65.70;99856.66;4874216;28;124323;-77
2021/12/13 06:57:20;;;;;;;9.03;5.27;;;8.70;93.80;;;9.31;65.77;99847.81;4856162;29;114652;-78
2021/12/13 07:00:16;;;;;;;6.80;5.10;;;8.70;93.80;;;9.31;65.47;99853.34;4865620;28;114200;-84
2021/12/13 07:02:54;;;;;;;8.10;4.67;;;8.70;93.70;;;9.31;65.53;99865.19;4872054;28;124273;-85
2021/12/13 07:05:46;;;;;;;5.97;4.70;;;8.70;93.70;;;9.34;65.39;99870.16;4866511;28;124176;-84
2021/12/13 07:08:27;;;;;;;5.90;4.43;;;8.60;93.70;;;9.36;65.26;99875.41;4864429;28;114875;-84
2021/12/13 07:10:55;;;;;;;5.00;4.10;;;8.70;93.70;;;9.36;65.18;99869.88;4865333;28;114505;-80
2021/12/13 07:13:47;;;;;;;7.63;4.83;;;8.90;93.70;;;9.39;65.14;99867.38;4873026;28;125129;-84
2021/12/13 07:16:29;;;;;;;5.93;4.37;;;8.80;93.60;;;9.38;65.49;99865.75;4854641;28;123833;-82
2021/12/13 07:19:24;;;;;;;5.53;3.90;;;8.80;93.60;;;9.41;65.08;99861.59;4857327;28;114017;-84
2021/12/13 07:22:06;;;;;;;6.70;4.17;;;8.80;93.50;;;9.41;64.91;99862.44;4862456;28;113341;-84
2021/12/13 07:24:54;;;;;;;4.73;3.70;;;8.80;93.50;;;9.42;64.79;99860.50;4874407;28;123280;-84
2021/12/13 07:27:33;;;;;;;6.07;4.20;;;8.80;93.40;;;9.41;64.66;99861.59;4863808;28;123323;-83
2021/12/13 07:30:14;;;;;;;8.47;5.10;;;8.80;93.40;;;9.41;64.63;99865.19;4861225;28;114240;-80
2021/12/13 07:33:08;;;;;;;10.20;5.80;;;8.80;93.40;;;9.41;64.68;99864.38;4872496;28;114167;-82
2021/12/13 07:35:43;;;;;;;7.60;5.30;;;8.80;93.30;;;9.41;65.19;99861.59;4871632;28;123594;-79
2021/12/13 07:38:19;;;;;;;6.97;5.10;;;9.70;93.70;;;9.41;64.68;99865.19;4874814;28;123852;-84
2021/12/13 07:40:51;;;;;;;10.07;5.40;;;8.80;93.30;;;9.40;64.99;99874.56;4870538;28;115278;-81
2021/12/13 07:43:27;;;;;;;8.93;6.40;;;8.80;93.30;;;9.41;65.17;99869.88;4871187;28;115029;-86
2021/12/13 07:46:06;;;;;;;9.10;5.33;;;8.80;93.30;;;9.41;64.83;99881.75;4874344;28;124479;-81
2021/12/13 07:48:55;;;;;;;9.00;5.97;;;8.80;93.30;;;9.42;64.76;99882.56;4872282;28;124021;-83
2021/12/13 07:51:55;;;;;;;7.90;5.40;;;8.80;93.30;;;9.43;64.88;99892.47;4875447;28;114291;-81
2021/12/13 07:54:25;;;;;;;8.17;5.20;;;8.80;93.30;;;9.43;65.09;99886.97;4876595;28;114170;-81
2021/12/13 07:57:01;;;;;;;8.13;5.63;;;8.90;93.40;;;9.44;64.87;99883.13;4871363;28;122292;-82
2021/12/13 07:59:36;;;;;;;9.00;6.03;;;8.90;93.40;;;9.45;65.16;99888.34;4875597;28;123181;-81
2021/12/13 08:02:31;;;;;;;9.63;6.10;;;8.80;93.40;;;9.49;64.90;99880.34;4858228;29;114424;-82
2021/12/13 08:05:11;;;;;;;7.17;4.73;;;8.90;93.40;;;9.50;64.80;99884.75;4869372;28;113340;-81
2021/12/13 08:07:54;;;;;;;8.77;5.43;;;8.90;93.40;;;9.55;65.09;99883.91;4876209;28;123628;-79
2021/12/13 08:10:39;;;;;;;8.30;5.13;;;10.10;93.50;;;9.59;64.91;99888.63;4859461;28;124140;-82
2021/12/13 08:13:17;;;;;;;11.53;6.20;;;8.90;93.50;;;9.59;64.79;99885.00;4857720;29;115007;-82
2021/12/13 08:15:57;;;;;;;8.50;5.90;;;8.90;93.50;;;9.59;65.12;99883.09;4875470;28;114490;-90
2021/12/13 08:18:34;;;;;;;9.20;7.00;;;9.00;93.50;;;9.59;64.88;99888.63;4863502;28;123467;-89
2021/12/13 08:21:58;;;;;;;10.80;6.03;;;9.00;93.50;;;9.61;65.15;99891.06;4863073;28;122956;-88
2021/12/13 08:24:47;;;;;;;10.40;5.40;;;9.00;93.50;;;9.58;64.74;99892.47;4862139;28;114322;-90
2021/12/13 08:27:57;;;;;;;11.60;6.13;;;9.00;93.40;;;9.58;64.84;99889.69;4867018;28;113533;-89
2021/12/13 08:30:52;;;;;;;6.57;4.83;;;9.00;93.40;;;9.57;64.70;99893.56;4866478;28;122249;-88
2021/12/13 08:33:58;;;;;;;7.30;4.93;;;9.00;93.40;;;9.55;64.71;99890.25;4851052;28;122362;-89
2021/12/13 08:36:24;;;;;;;8.77;5.10;;;9.00;93.30;;;9.54;65.09;99891.38;4867127;28;114647;-88
2021/12/13 08:39:25;;;;;;;10.10;5.37;;;9.00;93.30;;;9.56;64.92;99891.91;4872125;28;113524;-88
2021/12/13 08:42:21;;;;;;;9.30;5.10;;;9.00;93.30;;;9.57;64.97;99896.34;4851623;29;123945;-89
2021/12/13 08:45:15;;;;;;;7.33;4.90;;;9.00;93.30;;;9.57;64.43;99893.56;4854731;28;123259;-89
2021/12/13 08:48:03;;;;;;;9.70;6.13;;;9.00;93.30;;;9.59;64.86;99899.66;4858764;28;112334;-91
2021/12/13 08:50:48;;;;;;;7.73;5.27;;;9.10;93.40;;;9.62;64.65;99901.84;4845222;29;113449;-90
2021/12/13 08:53:24;;;;;;;9.07;6.00;;;9.10;93.30;;;9.66;64.60;99908.44;4848698;29;122090;-89
2021/12/13 08:56:32;;;;;;;8.10;5.10;;;9.10;93.30;;;9.71;64.82;99905.69;4865503;29;121888;-88
2021/12/13 08:59:18;;;;;;;10.40;5.83;;;9.10;93.30;;;9.74;64.92;99912.56;4844551;29;113708;-90
2021/12/13 09:02:28;;;;;;;13.37;5.47;;;9.10;93.30;;;9.77;64.60;99913.94;4857769;29;112155;-89
2021/12/13 09:05:07;;;;;;;9.10;5.80;;;9.20;93.40;;;9.80;64.61;99916.16;4850876;28;124098;-87
2021/12/13 09:07:35;;;;;;;9.40;5.67;;;9.20;93.40;;;9.83;64.54;99915.56;4862002;28;123095;-88
2021/12/13 09:10:05;;;;;;;13.27;6.07;;;9.20;93.40;;;9.88;64.68;99916.38;4858093;29;112304;-89
2021/12/13 09:12:45;;;;;;;10.23;6.37;;;9.20;93.40;;;9.94;64.95;99915.28;4827939;29;115026;-89
2021/12/13 09:15:24;;;;;;;11.80;6.50;;;9.30;93.40;;;9.98;64.59;99923.81;4852621;28;123132;-90
2021/12/13 09:17:53;;;;;;;10.30;6.70;;;9.30;93.50;;;10.03;64.86;99920.22;4830427;29;122029;-87
2021/12/13 09:20:39;;;;;;;13.70;6.50;;;9.40;93.60;;;10.09;64.63;99925.44;4844438;29;113477;-90
2021/12/13 09:26:48;;;;;;;11.77;6.50;;;9.50;93.50;;;10.10;64.69;99927.13;4864084;28;124116;-88
2021/12/13 09:29:18;;;;;;;11.20;7.23;;;9.50;93.40;;;10.11;64.52;99937.03;4873647;28;122865;-88
2021/12/13 09:32:12;;;;;;;9.20;6.50;;;9.50;93.40;;;10.16;64.65;99931.50;4878313;28;114978;-87
2021/12/13 09:35:18;;;;;;;8.60;5.47;;;9.50;93.40;;;10.18;64.59;99926.53;4878868;28;114018;-88
2021/12/13 09:38:41;;;;;;;12.27;6.50;;;9.60;93.40;;;10.18;64.66;99929.28;4872407;28;124141;-88
2021/12/13 09:41:36;;;;;;;9.73;6.17;;;9.60;93.30;;;10.18;64.50;99929.28;4860164;28;121927;-88
2021/12/13 09:44:49;;;;;;;10.07;6.20;;;9.60;93.30;;;10.18;64.51;99929.28;4859778;28;113161;-89
2021/12/13 09:47:35;;;;;;;7.77;5.77;;;9.60;93.40;;;10.22;64.70;99934.25;4859050;29;113470;-89
2021/12/13 09:50:20;;;;;;;12.37;6.83;;;9.60;93.30;;;10.24;64.53;99926.50;4856457;29;122802;-89
2021/12/13 09:53:05;;;;;;;9.90;6.07;;;9.60;93.30;;;10.27;64.45;99920.41;4856573;28;121790;-87
2021/12/13 09:55:41;;;;;;;10.23;6.70;;;9.70;93.40;;;10.31;64.37;99916.00;4856214;28;114208;-89
2021/12/13 09:58:12;;;;;;;8.13;5.60;;;9.70;93.40;;;10.32;64.86;99906.63;4861249;28;112600;-88
2021/12/13 10:01:26;;;;;;;11.27;6.83;;;9.70;93.40;;;10.36;64.36;99902.97;4846098;28;123902;-90
2021/12/13 10:04:32;;;;;;;13.47;6.97;;;9.80;93.40;;;10.36;64.35;99905.75;4845267;29;121975;-89
2021/12/13 10:07:34;;;;;;;9.50;6.83;;;9.80;93.40;;;10.38;64.54;99895.25;4855298;28;112706;-88
2021/12/13 10:10:15;;;;;;;9.53;5.53;;;9.80;93.50;;;10.42;64.53;99895.50;4849450;29;113493;-89
2021/12/13 10:12:57;;;;;;;8.00;5.20;;;9.80;93.50;;;10.48;64.70;99893.56;4837035;28;123699;-89
2021/12/13 10:16:10;;;;;;;9.93;6.07;;;9.90;93.50;;;10.52;64.48;99889.91;4844874;29;121751;-88
2021/12/13 10:18:43;;;;;;;13.50;6.80;;;9.90;93.50;;;10.56;64.24;99891.00;4853020;28;114179;-90
2021/12/13 10:21:14;;;;;;;8.40;5.53;;;9.90;93.50;;;10.59;64.56;99887.66;4846770;28;112298;-88
2021/12/13 10:23:50;;;;;;;10.07;6.43;;;10.00;93.10;;;10.65;64.50;99895.94;4858216;28;124538;-89
2021/12/13 10:26:38;;;;;;;9.27;5.97;;;10.00;93.00;;;10.70;64.41;99884.84;4864353;28;123505;-90
2021/12/13 10:30:02;;;;;;;8.70;5.70;;;10.10;93.10;;;10.74;64.19;99877.63;4847997;29;114040;-87
2021/12/13 10:32:35;;;;;;;11.33;5.93;;;10.10;93.00;;;10.78;64.26;99875.94;4822416;29;113684;-90
2021/12/13 10:35:40;;;;;;;6.70;5.50;;;10.20;93.10;;;10.79;64.52;99875.63;4834544;29;123683;-89
2021/12/13 10:38:30;;;;;;;9.03;5.80;;;10.20;93.00;;;10.83;64.54;99879.50;4833717;29;122792;-89
2021/12/13 10:41:08;;;;;;;9.37;5.97;;;10.20;93.00;;;10.86;64.16;99877.28;4827302;29;113655;-90
2021/12/13 10:43:42;;;;;;;8.47;6.47;;;10.20;93.00;;;10.88;64.20;99869.50;4824147;29;112188;-90
2021/12/13 10:46:21;;;;;;;9.73;6.37;;;10.30;93.00;;;10.91;64.28;99869.75;4825680;29;123290;-90
2021/12/13 10:48:54;;;;;;;11.60;6.50;;;10.30;93.10;;;10.96;64.39;99874.41;4822495;29;121816;-87
2021/12/13 10:51:42;;;;;;;12.43;6.77;;;10.40;93.10;;;11.00;63.83;99873.56;4830753;29;114140;-88
2021/12/13 10:54:17;;;;;;;11.77;6.80;;;10.40;93.10;;;11.04;64.40;99869.09;4838570;29;112000;-89
2021/12/13 10:56:51;;;;;;;15.60;7.27;;;10.40;93.00;;;11.08;64.43;99868.53;4853686;28;124052;-88
2021/12/13 10:59:22;;;;;;;9.80;6.80;;;10.40;93.00;;;11.09;64.37;99865.44;4840697;29;123890;-89
2021/12/13 11:01:56;;;;;;;10.13;6.23;;;10.50;93.00;;;11.12;64.34;99864.88;4858540;28;113296;-89
2021/12/13 11:04:33;;;;;;;14.37;6.90;;;10.50;93.00;;;11.15;64.23;99867.06;4846034;29;111843;-89
2021/12/13 11:07:07;;;;;;;12.43;7.37;;;10.50;93.00;;;11.19;63.95;99867.31;4869013;28;123190;-90
2021/12/13 11:09:38;;;;;;;13.00;6.93;;;11.30;93.40;;;11.22;64.35;99863.97;4873866;28;123373;-89
2021/12/13 11:12:20;;;;;;;11.20;7.30;;;10.60;93.00;;;11.25;64.22;99863.38;4869598;28;114310;-89
2021/12/13 11:14:52;;;;;;;12.07;6.37;;;10.70;93.10;;;11.25;64.09;99858.66;4873496;28;114108;-88
2021/12/13 11:17:40;;;;;;;13.30;7.00;;;10.60;93.00;;;11.27;63.97;99852.84;4873412;28;124708;-90
2021/12/13 11:20:19;;;;;;;12.80;7.10;;;10.60;93.00;;;11.28;64.13;99848.97;4857037;28;123949;-90
2021/12/13 11:22:50;;;;;;;14.50;6.97;;;10.60;93.00;;;11.29;63.62;99853.41;4857945;28;115256;-89
2021/12/13 11:25:25;;;;;;;10.30;6.90;;;10.70;93.00;;;11.31;63.96;99847.56;4871449;28;114898;-89
2021/12/13 11:28:14;;;;;;;11.93;7.20;;;10.70;93.00;;;11.32;63.86;99840.91;4873410;28;123317;-89
2021/12/13 11:30:45;;;;;;;14.13;7.50;;;10.70;93.00;;;11.32;63.98;99846.44;4868862;28;122761;-89
2021/12/13 11:33:21;;;;;;;13.93;7.20;;;10.70;93.00;;;11.32;64.22;99843.69;4856496;28;114198;-89
2021/12/13 11:36:27;;;;;;;12.67;7.80;;;10.70;93.00;;;11.33;64.25;99835.06;4857367;28;114066;-90